sensor_id;sensor_type;location;lat;lon;timestamp;pressure;altitude;pressure_sealevel;temperature;humidity
76074;BME280;64776;42.636;24.358;2023-07-20T00:00:17;90138.44;;;18.29;84.77
76074;BME280;64776;42.636;24.358;2023-07-20T00:03:18;90106.75;;;18.29;84.41
76074;BME280;64776;42.636;24.358;2023-07-20T00:06:20;90070.38;;;18.30;85.46
76074;BME280;64776;42.636;24.358;2023-07-20T00:09:21;90056.78;;;18.49;84.74
76074;BME280;64776;42.636;24.358;2023-07-20T00:12:22;90047.41;;;18.37;85.31
76074;BME280;64776;42.636;24.358;2023-07-20T00:15:23;90043.66;;;18.53;84.92
76074;BME280;64776;42.636;24.358;2023-07-20T00:18:23;90026.28;;;18.61;84.12
76074;BME280;64776;42.636;24.358;2023-07-20T00:21:25;90018.31;;;18.56;84.35
76074;BME280;64776;42.636;24.358;2023-07-20T00:24:26;90029.66;;;18.54;84.40
76074;BME280;64776;42.636;24.358;2023-07-20T00:27:31;90024.31;;;18.62;84.18
76074;BME280;64776;42.636;24.358;2023-07-20T00:30:32;90048.56;;;18.41;84.06
76074;BME280;64776;42.636;24.358;2023-07-20T00:33:33;90039.97;;;18.30;84.88
76074;BME280;64776;42.636;24.358;2023-07-20T00:36:36;90032.88;;;18.27;84.73
76074;BME280;64776;42.636;24.358;2023-07-20T00:39:37;90023.09;;;18.24;83.95
76074;BME280;64776;42.636;24.358;2023-07-20T00:42:38;90033.50;;;18.20;84.01
76074;BME280;64776;42.636;24.358;2023-07-20T00:45:39;90036.03;;;18.05;85.38
76074;BME280;64776;42.636;24.358;2023-07-20T00:48:40;90032.72;;;17.99;85.02
76074;BME280;64776;42.636;24.358;2023-07-20T00:51:43;90024.38;;;17.83;85.70
76074;BME280;64776;42.636;24.358;2023-07-20T00:54:44;90026.88;;;17.68;87.54
76074;BME280;64776;42.636;24.358;2023-07-20T00:57:46;90028.34;;;17.69;85.92
76074;BME280;64776;42.636;24.358;2023-07-20T01:00:46;90022.22;;;17.82;85.25
76074;BME280;64776;42.636;24.358;2023-07-20T01:03:48;90021.50;;;17.95;84.91
76074;BME280;64776;42.636;24.358;2023-07-20T01:06:55;90033.13;;;18.03;84.44
76074;BME280;64776;42.636;24.358;2023-07-20T01:10:01;90027.19;;;18.04;84.76
76074;BME280;64776;42.636;24.358;2023-07-20T01:13:03;90026.47;;;18.04;84.68
76074;BME280;64776;42.636;24.358;2023-07-20T01:16:07;90024.91;;;18.08;84.25
76074;BME280;64776;42.636;24.358;2023-07-20T01:19:07;90026.47;;;18.17;84.20
76074;BME280;64776;42.636;24.358;2023-07-20T01:22:25;90029.47;;;18.13;84.50
76074;BME280;64776;42.636;24.358;2023-07-20T01:25:34;90026.56;;;17.98;84.24
76074;BME280;64776;42.636;24.358;2023-07-20T01:32:01;90021.59;;;17.76;82.83
76074;BME280;64776;42.636;24.358;2023-07-20T01:35:04;90017.66;;;17.64;82.93
76074;BME280;64776;42.636;24.358;2023-07-20T01:38:07;90019.81;;;17.52;82.41
76074;BME280;64776;42.636;24.358;2023-07-20T01:41:09;90022.59;;;17.60;82.67
76074;BME280;64776;42.636;24.358;2023-07-20T01:44:11;90015.44;;;17.62;82.28
76074;BME280;64776;42.636;24.358;2023-07-20T01:47:14;90011.53;;;17.63;81.93
76074;BME280;64776;42.636;24.358;2023-07-20T01:50:16;90010.69;;;17.55;82.09
76074;BME280;64776;42.636;24.358;2023-07-20T01:53:17;90014.13;;;17.24;83.89
76074;BME280;64776;42.636;24.358;2023-07-20T01:56:18;90012.50;;;17.34;83.92
76074;BME280;64776;42.636;24.358;2023-07-20T01:59:19;90015.56;;;17.25;84.93
76074;BME280;64776;42.636;24.358;2023-07-20T02:02:22;90009.34;;;17.17;85.30
76074;BME280;64776;42.636;24.358;2023-07-20T02:05:23;90014.00;;;17.17;85.32
76074;BME280;64776;42.636;24.358;2023-07-20T02:08:24;90015.34;;;17.10;85.78
76074;BME280;64776;42.636;24.358;2023-07-20T02:11:25;90014.91;;;17.06;86.15
76074;BME280;64776;42.636;24.358;2023-07-20T02:14:25;90007.00;;;16.95;86.73
76074;BME280;64776;42.636;24.358;2023-07-20T02:17:28;90007.84;;;17.03;86.17
76074;BME280;64776;42.636;24.358;2023-07-20T02:20:30;90018.16;;;16.86;86.68
76074;BME280;64776;42.636;24.358;2023-07-20T02:23:30;90026.34;;;16.62;87.86
76074;BME280;64776;42.636;24.358;2023-07-20T02:26:31;90032.47;;;16.62;88.07
76074;BME280;64776;42.636;24.358;2023-07-20T02:29:32;90036.81;;;16.47;89.15
76074;BME280;64776;42.636;24.358;2023-07-20T02:32:34;90028.94;;;16.49;88.83
76074;BME280;64776;42.636;24.358;2023-07-20T02:35:35;90013.25;;;16.53;88.46
76074;BME280;64776;42.636;24.358;2023-07-20T02:38:36;90016.53;;;16.64;88.32
76074;BME280;64776;42.636;24.358;2023-07-20T02:41:36;90008.78;;;16.74;87.97
76074;BME280;64776;42.636;24.358;2023-07-20T02:44:37;90004.03;;;16.80;87.86
76074;BME280;64776;42.636;24.358;2023-07-20T02:47:39;90006.50;;;16.78;87.21
76074;BME280;64776;42.636;24.358;2023-07-20T02:50:40;90000.84;;;16.81;86.95
76074;BME280;64776;42.636;24.358;2023-07-20T02:53:41;89994.09;;;16.88;86.63
76074;BME280;64776;42.636;24.358;2023-07-20T02:56:42;89996.63;;;16.99;86.51
76074;BME280;64776;42.636;24.358;2023-07-20T02:59:42;89993.13;;;17.04;85.75
76074;BME280;64776;42.636;24.358;2023-07-20T03:02:44;89989.81;;;16.98;85.83
76074;BME280;64776;42.636;24.358;2023-07-20T03:05:45;90010.00;;;16.91;86.10
76074;BME280;64776;42.636;24.358;2023-07-20T03:08:46;90005.28;;;16.79;86.07
76074;BME280;64776;42.636;24.358;2023-07-20T03:11:47;90002.97;;;16.70;86.31
76074;BME280;64776;42.636;24.358;2023-07-20T03:14:48;89997.16;;;16.66;86.73
76074;BME280;64776;42.636;24.358;2023-07-20T03:17:50;89999.84;;;16.66;86.60
76074;BME280;64776;42.636;24.358;2023-07-20T03:20:51;89997.88;;;16.66;86.94
76074;BME280;64776;42.636;24.358;2023-07-20T03:23:51;90001.03;;;16.52;87.13
76074;BME280;64776;42.636;24.358;2023-07-20T03:26:52;90008.94;;;16.44;87.44
76074;BME280;64776;42.636;24.358;2023-07-20T03:29:53;90011.34;;;16.48;86.91
76074;BME280;64776;42.636;24.358;2023-07-20T03:32:55;90006.94;;;16.50;86.93
76074;BME280;64776;42.636;24.358;2023-07-20T03:35:56;90007.78;;;16.40;86.66
76074;BME280;64776;42.636;24.358;2023-07-20T03:38:58;90010.38;;;16.45;86.92
76074;BME280;64776;42.636;24.358;2023-07-20T03:41:58;90011.34;;;16.48;86.88
76074;BME280;64776;42.636;24.358;2023-07-20T03:44:59;90016.28;;;16.44;86.73
76074;BME280;64776;42.636;24.358;2023-07-20T03:48:01;90018.41;;;16.51;86.61
76074;BME280;64776;42.636;24.358;2023-07-20T03:51:02;90025.19;;;16.57;86.53
76074;BME280;64776;42.636;24.358;2023-07-20T03:54:03;90013.09;;;16.64;86.39
76074;BME280;64776;42.636;24.358;2023-07-20T03:57:04;90025.16;;;16.76;86.14
76074;BME280;64776;42.636;24.358;2023-07-20T04:00:06;90026.44;;;16.88;85.62
76074;BME280;64776;42.636;24.358;2023-07-20T04:03:09;90018.00;;;16.97;85.60
76074;BME280;64776;42.636;24.358;2023-07-20T04:06:09;90023.81;;;17.01;85.01
76074;BME280;64776;42.636;24.358;2023-07-20T04:09:11;90010.75;;;17.05;85.44
76074;BME280;64776;42.636;24.358;2023-07-20T04:12:12;90018.31;;;17.06;85.95
76074;BME280;64776;42.636;24.358;2023-07-20T04:15:13;90013.78;;;17.15;85.41
76074;BME280;64776;42.636;24.358;2023-07-20T04:18:15;90009.03;;;17.21;84.70
76074;BME280;64776;42.636;24.358;2023-07-20T04:21:16;90011.84;;;17.28;84.96
76074;BME280;64776;42.636;24.358;2023-07-20T04:24:17;90014.38;;;17.39;84.88
76074;BME280;64776;42.636;24.358;2023-07-20T04:27:18;90018.41;;;17.46;84.58
76074;BME280;64776;42.636;24.358;2023-07-20T04:30:19;90018.78;;;17.55;84.18
76074;BME280;64776;42.636;24.358;2023-07-20T04:33:21;90026.25;;;17.62;84.03
76074;BME280;64776;42.636;24.358;2023-07-20T04:36:22;90025.44;;;17.67;83.93
76074;BME280;64776;42.636;24.358;2023-07-20T04:39:22;90017.53;;;17.69;83.92
76074;BME280;64776;42.636;24.358;2023-07-20T04:42:23;90010.47;;;17.66;83.80
76074;BME280;64776;42.636;24.358;2023-07-20T04:45:24;90011.41;;;17.69;83.43
76074;BME280;64776;42.636;24.358;2023-07-20T04:48:26;90014.63;;;17.80;83.34
76074;BME280;64776;42.636;24.358;2023-07-20T04:51:27;90021.56;;;17.89;82.58
76074;BME280;64776;42.636;24.358;2023-07-20T04:54:28;90013.56;;;18.10;81.69
76074;BME280;64776;42.636;24.358;2023-07-20T04:57:29;90012.22;;;18.29;81.37
76074;BME280;64776;42.636;24.358;2023-07-20T05:00:29;90017.16;;;18.38;80.57
76074;BME280;64776;42.636;24.358;2023-07-20T05:03:31;90008.63;;;18.60;80.13
76074;BME280;64776;42.636;24.358;2023-07-20T05:06:32;90013.47;;;18.75;79.53
76074;BME280;64776;42.636;24.358;2023-07-20T05:09:33;90009.88;;;18.93;79.43
76074;BME280;64776;42.636;24.358;2023-07-20T05:12:34;90005.78;;;19.20;79.13
76074;BME280;64776;42.636;24.358;2023-07-20T05:15:36;89993.91;;;19.23;78.42
76074;BME280;64776;42.636;24.358;2023-07-20T05:18:38;90000.91;;;19.39;78.51
76074;BME280;64776;42.636;24.358;2023-07-20T05:21:38;90001.88;;;19.49;76.65
76074;BME280;64776;42.636;24.358;2023-07-20T05:24:39;89993.84;;;19.57;76.46
76074;BME280;64776;42.636;24.358;2023-07-20T05:27:40;89985.97;;;19.67;74.17
76074;BME280;64776;42.636;24.358;2023-07-20T05:30:41;89990.50;;;20.00;73.13
76074;BME280;64776;42.636;24.358;2023-07-20T05:33:43;89977.56;;;20.13;73.86
76074;BME280;64776;42.636;24.358;2023-07-20T05:37:11;89985.28;;;20.38;73.87
76074;BME280;64776;42.636;24.358;2023-07-20T05:40:13;89976.44;;;20.45;73.20
76074;BME280;64776;42.636;24.358;2023-07-20T05:43:14;89966.25;;;20.73;71.46
76074;BME280;64776;42.636;24.358;2023-07-20T05:46:15;89965.91;;;20.84;70.64
76074;BME280;64776;42.636;24.358;2023-07-20T05:49:17;89960.53;;;20.99;71.09
76074;BME280;64776;42.636;24.358;2023-07-20T05:52:18;89955.84;;;21.23;70.03
76074;BME280;64776;42.636;24.358;2023-07-20T05:55:18;89953.31;;;21.40;69.86
76074;BME280;64776;42.636;24.358;2023-07-20T05:58:19;89953.50;;;21.57;69.02
76074;BME280;64776;42.636;24.358;2023-07-20T06:01:20;89957.69;;;21.43;69.86
76074;BME280;64776;42.636;24.358;2023-07-20T06:04:22;89958.75;;;21.40;70.10
76074;BME280;64776;42.636;24.358;2023-07-20T06:07:23;89954.22;;;21.57;69.82
76074;BME280;64776;42.636;24.358;2023-07-20T06:10:24;89957.31;;;21.84;68.87
76074;BME280;64776;42.636;24.358;2023-07-20T06:13:26;89951.28;;;22.01;67.96
76074;BME280;64776;42.636;24.358;2023-07-20T06:16:27;89952.66;;;22.24;67.89
76074;BME280;64776;42.636;24.358;2023-07-20T06:19:29;89947.47;;;22.51;66.15
76074;BME280;64776;42.636;24.358;2023-07-20T06:22:29;89948.09;;;22.82;64.70
76074;BME280;64776;42.636;24.358;2023-07-20T06:25:30;89951.72;;;23.09;64.08
76074;BME280;64776;42.636;24.358;2023-07-20T06:28:31;89958.84;;;23.29;63.20
76074;BME280;64776;42.636;24.358;2023-07-20T06:31:32;89965.22;;;23.56;63.03
76074;BME280;64776;42.636;24.358;2023-07-20T06:34:34;89959.53;;;23.86;61.33
76074;BME280;64776;42.636;24.358;2023-07-20T06:37:35;89956.81;;;24.03;60.74
76074;BME280;64776;42.636;24.358;2023-07-20T06:40:35;89953.31;;;24.28;59.48
76074;BME280;64776;42.636;24.358;2023-07-20T06:43:36;89962.13;;;24.53;58.94
76074;BME280;64776;42.636;24.358;2023-07-20T06:46:37;89962.59;;;24.76;56.79
76074;BME280;64776;42.636;24.358;2023-07-20T06:49:39;89963.63;;;24.97;56.08
76074;BME280;64776;42.636;24.358;2023-07-20T06:52:41;89958.38;;;25.19;55.85
76074;BME280;64776;42.636;24.358;2023-07-20T06:55:46;89951.16;;;25.40;55.34
76074;BME280;64776;42.636;24.358;2023-07-20T06:58:47;89949.56;;;25.37;53.36
76074;BME280;64776;42.636;24.358;2023-07-20T07:01:48;89951.53;;;25.54;53.80
76074;BME280;64776;42.636;24.358;2023-07-20T07:04:50;89951.00;;;25.74;53.78
76074;BME280;64776;42.636;24.358;2023-07-20T07:07:50;89948.34;;;25.94;52.68
76074;BME280;64776;42.636;24.358;2023-07-20T07:10:52;89967.69;;;26.24;51.71
76074;BME280;64776;42.636;24.358;2023-07-20T07:13:53;89961.22;;;26.29;53.75
76074;BME280;64776;42.636;24.358;2023-07-20T07:16:54;89958.34;;;26.37;51.10
76074;BME280;64776;42.636;24.358;2023-07-20T07:19:56;89961.50;;;26.52;50.54
76074;BME280;64776;42.636;24.358;2023-07-20T07:22:57;89964.56;;;26.66;50.06
76074;BME280;64776;42.636;24.358;2023-07-20T07:25:57;89965.56;;;26.80;50.81
76074;BME280;64776;42.636;24.358;2023-07-20T07:28:58;89954.59;;;26.99;50.50
76074;BME280;64776;42.636;24.358;2023-07-20T07:31:59;89960.38;;;27.03;48.88
76074;BME280;64776;42.636;24.358;2023-07-20T07:35:01;89962.53;;;26.95;49.57
76074;BME280;64776;42.636;24.358;2023-07-20T07:38:02;89963.81;;;26.94;49.06
76074;BME280;64776;42.636;24.358;2023-07-20T07:41:03;89965.97;;;26.96;49.22
76074;BME280;64776;42.636;24.358;2023-07-20T07:44:04;89975.66;;;26.97;47.55
76074;BME280;64776;42.636;24.358;2023-07-20T07:47:05;89980.84;;;26.83;48.43
76074;BME280;64776;42.636;24.358;2023-07-20T07:50:08;89972.19;;;26.87;46.24
76074;BME280;64776;42.636;24.358;2023-07-20T07:53:09;89973.78;;;26.99;48.09
76074;BME280;64776;42.636;24.358;2023-07-20T07:56:09;89974.34;;;27.07;46.71
76074;BME280;64776;42.636;24.358;2023-07-20T07:59:10;89963.97;;;27.06;47.94
76074;BME280;64776;42.636;24.358;2023-07-20T08:02:11;89972.44;;;27.19;43.72
76074;BME280;64776;42.636;24.358;2023-07-20T08:05:13;89990.56;;;27.24;44.26
76074;BME280;64776;42.636;24.358;2023-07-20T08:08:14;89981.34;;;27.39;44.92
76074;BME280;64776;42.636;24.358;2023-07-20T08:11:15;89980.97;;;27.64;43.78
76074;BME280;64776;42.636;24.358;2023-07-20T08:14:16;89986.91;;;27.70;41.97
76074;BME280;64776;42.636;24.358;2023-07-20T08:17:16;89980.72;;;27.90;40.61
76074;BME280;64776;42.636;24.358;2023-07-20T08:20:19;89988.44;;;27.73;38.55
76074;BME280;64776;42.636;24.358;2023-07-20T08:23:19;89993.72;;;27.90;40.13
76074;BME280;64776;42.636;24.358;2023-07-20T08:26:20;89989.13;;;28.23;41.11
76074;BME280;64776;42.636;24.358;2023-07-20T08:29:21;89985.47;;;28.51;41.27
76074;BME280;64776;42.636;24.358;2023-07-20T08:32:22;89982.22;;;28.64;41.55
76074;BME280;64776;42.636;24.358;2023-07-20T08:35:24;89974.41;;;28.82;41.52
76074;BME280;64776;42.636;24.358;2023-07-20T08:38:25;89969.19;;;28.44;39.82
76074;BME280;64776;42.636;24.358;2023-07-20T08:41:26;89976.53;;;28.72;39.94
76074;BME280;64776;42.636;24.358;2023-07-20T08:44:26;89973.75;;;28.93;39.56
76074;BME280;64776;42.636;24.358;2023-07-20T08:47:27;89969.50;;;29.13;38.53
76074;BME280;64776;42.636;24.358;2023-07-20T08:50:30;89963.63;;;29.28;37.33
76074;BME280;64776;42.636;24.358;2023-07-20T08:53:32;89948.66;;;29.31;37.02
76074;BME280;64776;42.636;24.358;2023-07-20T08:56:34;89945.19;;;29.19;36.17
76074;BME280;64776;42.636;24.358;2023-07-20T08:59:36;89948.78;;;29.33;37.70
76074;BME280;64776;42.636;24.358;2023-07-20T09:02:39;89940.22;;;29.62;36.24
76074;BME280;64776;42.636;24.358;2023-07-20T09:05:41;89938.81;;;29.72;36.38
76074;BME280;64776;42.636;24.358;2023-07-20T09:08:42;89942.53;;;29.89;36.27
76074;BME280;64776;42.636;24.358;2023-07-20T09:11:44;89940.00;;;30.27;36.11
76074;BME280;64776;42.636;24.358;2023-07-20T09:14:46;89940.56;;;30.49;36.23
76074;BME280;64776;42.636;24.358;2023-07-20T09:17:48;89940.50;;;30.35;34.39
76074;BME280;64776;42.636;24.358;2023-07-20T09:20:50;89937.75;;;30.12;35.27
76074;BME280;64776;42.636;24.358;2023-07-20T09:23:56;89937.13;;;29.67;37.17
76074;BME280;64776;42.636;24.358;2023-07-20T09:26:57;89936.75;;;29.61;38.04
76074;BME280;64776;42.636;24.358;2023-07-20T09:29:58;89922.41;;;29.63;38.79
76074;BME280;64776;42.636;24.358;2023-07-20T09:32:58;89913.22;;;29.47;38.79
76074;BME280;64776;42.636;24.358;2023-07-20T09:36:03;89925.66;;;30.06;36.63
76074;BME280;64776;42.636;24.358;2023-07-20T09:39:04;89931.59;;;30.25;35.91
76074;BME280;64776;42.636;24.358;2023-07-20T09:42:05;89932.00;;;30.31;37.18
76074;BME280;64776;42.636;24.358;2023-07-20T09:45:07;89925.56;;;30.64;36.40
76074;BME280;64776;42.636;24.358;2023-07-20T09:48:09;89921.16;;;30.84;35.75
76074;BME280;64776;42.636;24.358;2023-07-20T09:51:12;89923.72;;;30.20;36.17
76074;BME280;64776;42.636;24.358;2023-07-20T09:54:14;89928.72;;;30.46;36.88
76074;BME280;64776;42.636;24.358;2023-07-20T09:57:15;89917.63;;;30.70;37.54
76074;BME280;64776;42.636;24.358;2023-07-20T10:00:17;89918.78;;;30.90;37.27
76074;BME280;64776;42.636;24.358;2023-07-20T10:03:19;89923.53;;;31.01;38.09
76074;BME280;64776;42.636;24.358;2023-07-20T10:06:24;89916.84;;;30.92;37.99
76074;BME280;64776;42.636;24.358;2023-07-20T10:09:25;89920.69;;;31.12;37.68
76074;BME280;64776;42.636;24.358;2023-07-20T10:12:27;89924.84;;;31.25;36.49
76074;BME280;64776;42.636;24.358;2023-07-20T10:15:33;89915.84;;;31.50;36.67
76074;BME280;64776;42.636;24.358;2023-07-20T10:18:41;89928.13;;;31.35;35.99
76074;BME280;64776;42.636;24.358;2023-07-20T10:21:48;89923.63;;;31.28;35.76
76074;BME280;64776;42.636;24.358;2023-07-20T10:24:52;89923.13;;;31.31;36.82
76074;BME280;64776;42.636;24.358;2023-07-20T10:27:53;89914.97;;;31.33;35.55
76074;BME280;64776;42.636;24.358;2023-07-20T10:30:55;89917.81;;;31.36;36.01
76074;BME280;64776;42.636;24.358;2023-07-20T10:33:57;89920.69;;;30.87;36.24
76074;BME280;64776;42.636;24.358;2023-07-20T10:36:59;89928.50;;;31.16;36.46
76074;BME280;64776;42.636;24.358;2023-07-20T10:40:28;89923.09;;;31.18;37.34
76074;BME280;64776;42.636;24.358;2023-07-20T10:43:29;89916.25;;;31.44;33.85
76074;BME280;64776;42.636;24.358;2023-07-20T10:46:34;89920.03;;;31.25;36.32
76074;BME280;64776;42.636;24.358;2023-07-20T10:49:59;89929.69;;;31.63;36.28
76074;BME280;64776;42.636;24.358;2023-07-20T10:53:12;89930.31;;;31.75;36.83
76074;BME280;64776;42.636;24.358;2023-07-20T10:56:14;89916.72;;;31.79;35.74
76074;BME280;64776;42.636;24.358;2023-07-20T10:59:18;89922.09;;;31.64;35.58
76074;BME280;64776;42.636;24.358;2023-07-20T11:02:19;89917.50;;;31.29;36.48
76074;BME280;64776;42.636;24.358;2023-07-20T11:05:33;89927.47;;;31.23;37.34
76074;BME280;64776;42.636;24.358;2023-07-20T11:08:40;89931.22;;;30.54;38.02
76074;BME280;64776;42.636;24.358;2023-07-20T11:11:42;89916.22;;;29.97;39.89
76074;BME280;64776;42.636;24.358;2023-07-20T11:14:44;89915.34;;;29.60;40.96
76074;BME280;64776;42.636;24.358;2023-07-20T11:18:11;89931.28;;;29.06;42.97
76074;BME280;64776;42.636;24.358;2023-07-20T11:21:13;89925.03;;;29.05;43.16
76074;BME280;64776;42.636;24.358;2023-07-20T11:24:16;89934.44;;;29.23;43.90
76074;BME280;64776;42.636;24.358;2023-07-20T11:27:17;89934.44;;;29.35;43.54
76074;BME280;64776;42.636;24.358;2023-07-20T11:30:18;89929.31;;;28.96;43.73
76074;BME280;64776;42.636;24.358;2023-07-20T11:33:18;89925.00;;;28.93;45.20
76074;BME280;64776;42.636;24.358;2023-07-20T11:36:19;89928.66;;;29.08;45.30
76074;BME280;64776;42.636;24.358;2023-07-20T11:39:22;89938.84;;;28.63;46.00
76074;BME280;64776;42.636;24.358;2023-07-20T11:42:23;89919.19;;;28.45;45.91
76074;BME280;64776;42.636;24.358;2023-07-20T11:45:25;89915.63;;;28.54;45.71
76074;BME280;64776;42.636;24.358;2023-07-20T11:48:25;89919.47;;;28.82;45.58
76074;BME280;64776;42.636;24.358;2023-07-20T11:51:28;89906.34;;;28.80;44.78
76074;BME280;64776;42.636;24.358;2023-07-20T11:54:31;89884.22;;;28.46;44.89
76074;BME280;64776;42.636;24.358;2023-07-20T11:57:33;89865.31;;;28.61;44.63
76074;BME280;64776;42.636;24.358;2023-07-20T12:00:36;89872.94;;;28.95;44.02
76074;BME280;64776;42.636;24.358;2023-07-20T12:03:37;89880.56;;;29.53;42.96
76074;BME280;64776;42.636;24.358;2023-07-20T12:06:38;89876.09;;;29.25;42.87
76074;BME280;64776;42.636;24.358;2023-07-20T12:09:40;89875.75;;;29.19;42.71
76074;BME280;64776;42.636;24.358;2023-07-20T12:12:42;89879.56;;;29.14;42.31
76074;BME280;64776;42.636;24.358;2023-07-20T12:15:43;89865.25;;;29.27;41.67
76074;BME280;64776;42.636;24.358;2023-07-20T12:18:44;89858.41;;;29.97;42.40
76074;BME280;64776;42.636;24.358;2023-07-20T12:21:45;89866.09;;;29.87;41.34
76074;BME280;64776;42.636;24.358;2023-07-20T12:24:47;89861.91;;;29.40;39.76
76074;BME280;64776;42.636;24.358;2023-07-20T12:27:52;89861.16;;;29.16;41.70
76074;BME280;64776;42.636;24.358;2023-07-20T12:30:53;89859.31;;;28.97;40.71
76074;BME280;64776;42.636;24.358;2023-07-20T12:33:54;89859.13;;;29.17;41.81
76074;BME280;64776;42.636;24.358;2023-07-20T12:36:55;89846.50;;;29.46;38.92
76074;BME280;64776;42.636;24.358;2023-07-20T12:39:57;89844.53;;;29.14;40.36
76074;BME280;64776;42.636;24.358;2023-07-20T12:42:58;89852.56;;;29.68;39.34
76074;BME280;64776;42.636;24.358;2023-07-20T12:45:59;89846.00;;;29.50;39.26
76074;BME280;64776;42.636;24.358;2023-07-20T12:49:00;89837.31;;;30.13;38.54
76074;BME280;64776;42.636;24.358;2023-07-20T12:52:01;89840.47;;;30.44;37.61
76074;BME280;64776;42.636;24.358;2023-07-20T12:55:03;89832.22;;;30.44;38.30
76074;BME280;64776;42.636;24.358;2023-07-20T12:58:04;89836.47;;;30.59;36.53
76074;BME280;64776;42.636;24.358;2023-07-20T13:01:05;89834.75;;;29.92;37.89
76074;BME280;64776;42.636;24.358;2023-07-20T13:04:06;89820.44;;;30.30;37.05
76074;BME280;64776;42.636;24.358;2023-07-20T13:07:10;89820.56;;;30.83;37.65
76074;BME280;64776;42.636;24.358;2023-07-20T13:10:12;89821.94;;;30.95;38.13
76074;BME280;64776;42.636;24.358;2023-07-20T13:13:13;89812.78;;;30.54;36.67
76074;BME280;64776;42.636;24.358;2023-07-20T13:16:14;89800.06;;;30.61;37.08
76074;BME280;64776;42.636;24.358;2023-07-20T13:19:14;89813.91;;;31.13;37.17
76074;BME280;64776;42.636;24.358;2023-07-20T13:22:15;89812.47;;;31.12;35.98
76074;BME280;64776;42.636;24.358;2023-07-20T13:25:21;89808.19;;;31.09;36.25
76074;BME280;64776;42.636;24.358;2023-07-20T13:28:21;89811.50;;;30.94;35.81
76074;BME280;64776;42.636;24.358;2023-07-20T13:31:22;89808.31;;;30.86;35.49
76074;BME280;64776;42.636;24.358;2023-07-20T13:34:23;89809.88;;;30.64;35.18
76074;BME280;64776;42.636;24.358;2023-07-20T13:37:24;89803.81;;;30.53;34.40
76074;BME280;64776;42.636;24.358;2023-07-20T13:40:28;89806.66;;;30.30;34.87
76074;BME280;64776;42.636;24.358;2023-07-20T13:43:29;89798.72;;;30.36;34.97
76074;BME280;64776;42.636;24.358;2023-07-20T13:46:30;89809.41;;;30.30;34.80
76074;BME280;64776;42.636;24.358;2023-07-20T13:49:31;89802.81;;;30.35;35.27
76074;BME280;64776;42.636;24.358;2023-07-20T13:52:32;89801.31;;;30.71;35.47
76074;BME280;64776;42.636;24.358;2023-07-20T13:55:34;89813.16;;;30.48;34.89
76074;BME280;64776;42.636;24.358;2023-07-20T13:58:35;89815.97;;;30.25;34.88
76074;BME280;64776;42.636;24.358;2023-07-20T14:01:35;89809.41;;;30.30;36.25
76074;BME280;64776;42.636;24.358;2023-07-20T14:04:37;89807.16;;;30.15;36.00
76074;BME280;64776;42.636;24.358;2023-07-20T14:07:37;89804.25;;;30.62;35.79
76074;BME280;64776;42.636;24.358;2023-07-20T14:10:40;89810.53;;;31.14;35.87
76074;BME280;64776;42.636;24.358;2023-07-20T14:13:40;89806.31;;;31.00;35.42
76074;BME280;64776;42.636;24.358;2023-07-20T14:16:41;89807.56;;;30.97;35.49
76074;BME280;64776;42.636;24.358;2023-07-20T14:19:42;89801.38;;;30.60;34.61
76074;BME280;64776;42.636;24.358;2023-07-20T14:22:43;89806.19;;;30.22;35.41
76074;BME280;64776;42.636;24.358;2023-07-20T14:25:45;89802.66;;;30.45;35.03
76074;BME280;64776;42.636;24.358;2023-07-20T14:28:46;89801.16;;;30.56;34.65
76074;BME280;64776;42.636;24.358;2023-07-20T14:31:47;89786.00;;;30.68;34.53
76074;BME280;64776;42.636;24.358;2023-07-20T14:34:47;89787.66;;;30.73;34.73
76074;BME280;64776;42.636;24.358;2023-07-20T14:37:48;89776.63;;;30.48;34.70
76074;BME280;64776;42.636;24.358;2023-07-20T14:40:50;89781.88;;;30.30;34.29
76074;BME280;64776;42.636;24.358;2023-07-20T14:43:51;89781.88;;;30.56;35.26
76074;BME280;64776;42.636;24.358;2023-07-20T14:46:52;89785.22;;;30.29;36.07
76074;BME280;64776;42.636;24.358;2023-07-20T14:49:53;89777.72;;;30.29;36.11
76074;BME280;64776;42.636;24.358;2023-07-20T14:52:53;89780.69;;;30.22;36.64
76074;BME280;64776;42.636;24.358;2023-07-20T14:55:59;89787.09;;;30.01;37.04
76074;BME280;64776;42.636;24.358;2023-07-20T14:59:00;89782.78;;;30.10;37.02
76074;BME280;64776;42.636;24.358;2023-07-20T15:02:01;89790.41;;;30.11;37.11
76074;BME280;64776;42.636;24.358;2023-07-20T15:05:02;89782.63;;;29.71;37.55
76074;BME280;64776;42.636;24.358;2023-07-20T15:08:03;89787.88;;;29.67;37.35
76074;BME280;64776;42.636;24.358;2023-07-20T15:11:06;89790.81;;;29.34;38.40
76074;BME280;64776;42.636;24.358;2023-07-20T15:14:06;89800.88;;;28.85;39.68
76074;BME280;64776;42.636;24.358;2023-07-20T15:17:07;89800.06;;;28.83;39.75
76074;BME280;64776;42.636;24.358;2023-07-20T15:20:10;89788.44;;;28.73;39.78
76074;BME280;64776;42.636;24.358;2023-07-20T15:23:11;89799.41;;;28.61;40.82
76074;BME280;64776;42.636;24.358;2023-07-20T15:26:14;89799.69;;;28.44;39.72
76074;BME280;64776;42.636;24.358;2023-07-20T15:29:15;89806.38;;;28.41;39.94
76074;BME280;64776;42.636;24.358;2023-07-20T15:32:17;89803.25;;;28.35;39.78
76074;BME280;64776;42.636;24.358;2023-07-20T15:35:18;89812.97;;;28.15;40.59
76074;BME280;64776;42.636;24.358;2023-07-20T15:38:18;89813.16;;;28.07;41.19
76074;BME280;64776;42.636;24.358;2023-07-20T15:41:22;89813.84;;;27.96;41.14
76074;BME280;64776;42.636;24.358;2023-07-20T15:44:23;89818.31;;;27.92;41.27
76074;BME280;64776;42.636;24.358;2023-07-20T15:47:24;89815.31;;;27.67;41.98
76074;BME280;64776;42.636;24.358;2023-07-20T15:50:24;89822.03;;;27.54;42.34
76074;BME280;64776;42.636;24.358;2023-07-20T15:53:25;89822.63;;;27.53;42.23